createdAt,value
2024-05-09T00:00:35.971Z,101176.78
2024-05-09T00:03:08.141Z,101175.91
2024-05-09T00:05:35.992Z,101180.97
2024-05-09T00:08:03.159Z,101173.50
2024-05-09T00:10:35.999Z,101179.28
2024-05-09T00:13:05.553Z,101171.84
2024-05-09T00:15:33.359Z,101177.81
2024-05-09T00:18:00.386Z,101173.31
2024-05-09T00:20:35.311Z,101171.94
2024-05-09T00:23:07.222Z,101175.78
2024-05-09T00:25:34.423Z,101176.72
2024-05-09T00:28:01.008Z,101173.09
2024-05-09T00:30:34.123Z,101165.97
2024-05-09T00:33:04.617Z,101173.78
2024-05-09T00:35:32.330Z,101172.41
2024-05-09T00:37:59.289Z,101168.78
2024-05-09T00:40:35.519Z,101170.16
2024-05-09T00:43:06.396Z,101173.31
2024-05-09T00:45:34.511Z,101161.91
2024-05-09T00:48:03.539Z,101170.69
2024-05-09T00:50:36.328Z,101166.41
2024-05-09T00:53:06.416Z,101168.91
2024-05-09T00:55:35.163Z,101176.44
2024-05-09T00:58:02.695Z,101172.78
2024-05-09T01:00:37.830Z,101177.22
2024-05-09T01:03:07.340Z,101182.78
2024-05-09T01:05:34.943Z,101180.06
2024-05-09T01:08:02.683Z,101177.75
2024-05-09T01:10:34.423Z,101172.34
2024-05-09T01:13:03.558Z,101172.56
2024-05-09T01:15:30.261Z,101174.38
2024-05-09T01:17:57.691Z,101181.38
2024-05-09T01:20:36.411Z,101184.66
2024-05-09T01:23:08.997Z,101179.22
2024-05-09T01:25:35.995Z,101179.34
2024-05-09T01:28:02.627Z,101181.38
2024-05-09T01:30:34.668Z,101179.50
2024-05-09T01:33:04.681Z,101183.47
2024-05-09T01:35:32.047Z,101181.38
2024-05-09T01:37:58.848Z,101187.00
2024-05-09T01:40:35.427Z,101180.69
2024-05-09T01:43:05.011Z,101183.03
2024-05-09T01:45:31.776Z,101187.09
2024-05-09T01:47:58.666Z,101193.13
2024-05-09T01:50:36.693Z,101189.94
2024-05-09T01:53:07.179Z,101186.66
2024-05-09T01:55:33.830Z,101189.84
2024-05-09T01:58:00.428Z,101195.22
2024-05-09T02:00:37.655Z,101192.16
2024-05-09T02:03:10.710Z,101198.06
2024-05-09T02:05:39.298Z,101197.22
2024-05-09T02:08:06.944Z,101198.44
2024-05-09T02:10:33.842Z,101204.81
2024-05-09T02:13:00.903Z,101196.25
2024-05-09T02:15:27.708Z,101195.56
2024-05-09T02:17:54.564Z,101198.16
2024-05-09T02:20:30.574Z,101197.13
2024-05-09T02:23:04.109Z,101188.53
2024-05-09T02:25:31.644Z,101195.44
2024-05-09T02:27:58.243Z,101193.69
2024-05-09T02:30:34.897Z,101195.75
2024-05-09T02:33:06.322Z,101193.63
2024-05-09T02:35:33.144Z,101195.06
2024-05-09T02:38:00.004Z,101189.00
2024-05-09T02:40:35.508Z,101188.88
2024-05-09T02:43:05.044Z,101186.38
2024-05-09T02:45:31.753Z,101186.91
2024-05-09T02:47:58.725Z,101187.09
2024-05-09T02:50:33.746Z,101179.69
2024-05-09T02:53:05.194Z,101177.88
2024-05-09T02:55:32.178Z,101180.22
2024-05-09T02:57:58.802Z,101186.56
2024-05-09T03:00:34.474Z,101193.66
2024-05-09T03:03:10.456Z,101188.00
2024-05-09T03:05:39.513Z,101188.53
2024-05-09T03:08:06.575Z,101195.41
2024-05-09T03:10:36.570Z,101199.13
2024-05-09T03:13:09.832Z,101197.44
2024-05-09T03:15:36.696Z,101199.47
2024-05-09T03:18:04.714Z,101188.63
2024-05-09T03:20:34.914Z,101183.84
2024-05-09T03:23:03.767Z,101194.13
2024-05-09T03:25:30.682Z,101190.13
2024-05-09T03:27:57.229Z,101192.19
2024-05-09T03:30:35.931Z,101195.56
2024-05-09T03:33:20.579Z,101185.91
2024-05-09T03:35:48.242Z,101190.00
2024-05-09T03:38:15.408Z,101189.28
2024-05-09T03:40:46.494Z,101191.41
2024-05-09T03:43:13.674Z,101189.84
2024-05-09T03:45:40.271Z,101189.47
2024-05-09T03:48:07.715Z,101191.69
2024-05-09T03:50:36.172Z,101186.66
2024-05-09T03:53:03.957Z,101195.44
2024-05-09T03:55:31.124Z,101204.31
2024-05-09T03:57:57.824Z,101195.50
2024-05-09T04:00:31.390Z,101200.91
2024-05-09T04:03:05.919Z,101198.59
2024-05-09T04:05:34.414Z,101198.88
2024-05-09T04:08:01.438Z,101200.69
2024-05-09T04:10:33.177Z,101197.69
2024-05-09T04:13:01.394Z,101214.53
2024-05-09T04:15:28.078Z,101209.78
2024-05-09T04:17:54.801Z,101215.56
2024-05-09T04:20:32.583Z,101216.47
2024-05-09T04:23:11.027Z,101216.94
2024-05-09T04:25:38.054Z,101221.06
2024-05-09T04:28:05.237Z,101220.81
2024-05-09T04:30:38.014Z,101228.94
2024-05-09T04:33:09.706Z,101230.59
2024-05-09T04:35:38.527Z,101227.44
2024-05-09T04:38:05.516Z,101231.84
2024-05-09T04:40:35.571Z,101230.03
2024-05-09T04:43:04.977Z,101230.94
2024-05-09T04:45:31.652Z,101232.44
2024-05-09T04:47:58.584Z,101233.91
2024-05-09T04:50:33.574Z,101232.56
2024-05-09T04:53:05.034Z,101240.84
2024-05-09T04:55:33.084Z,101239.63
2024-05-09T04:57:59.811Z,101234.53
2024-05-09T05:00:34.530Z,101240.94
2024-05-09T05:03:10.152Z,101242.81
2024-05-09T05:05:42.889Z,101241.50
2024-05-09T05:08:14.072Z,101250.28
2024-05-09T05:10:41.561Z,101245.75
2024-05-09T05:13:20.047Z,101245.44
2024-05-09T05:15:48.815Z,101254.19
2024-05-09T05:18:16.669Z,101247.19
2024-05-09T05:20:43.780Z,101249.91
2024-05-09T05:23:13.451Z,101254.41
2024-05-09T05:25:41.030Z,101260.50
2024-05-09T05:28:07.981Z,101248.47
2024-05-09T05:30:37.437Z,101253.06
2024-05-09T05:33:05.366Z,101252.88
2024-05-09T05:35:32.050Z,101254.56
2024-05-09T05:37:58.661Z,101254.72
2024-05-09T05:40:33.004Z,101257.03
2024-05-09T05:43:04.921Z,101261.03
2024-05-09T05:45:31.496Z,101260.38
2024-05-09T05:47:58.320Z,101250.63
2024-05-09T05:50:32.535Z,101256.50
2024-05-09T05:53:03.326Z,101262.84
2024-05-09T05:55:30.014Z,101257.25
2024-05-09T05:57:56.699Z,101264.69
2024-05-09T06:00:29.926Z,101258.34
2024-05-09T06:03:04.712Z,101264.94
2024-05-09T06:05:31.788Z,101265.84
2024-05-09T06:07:58.619Z,101266.06
2024-05-09T06:10:29.564Z,101267.09
2024-05-09T06:13:01.473Z,101278.97
2024-05-09T06:15:28.059Z,101279.88
2024-05-09T06:17:54.863Z,101278.44
2024-05-09T06:20:31.263Z,101278.09
2024-05-09T06:23:03.280Z,101281.13
2024-05-09T06:25:30.080Z,101276.75
2024-05-09T06:27:56.723Z,101278.78
2024-05-09T06:30:30.387Z,101275.63
2024-05-09T06:33:05.827Z,101283.84
2024-05-09T06:35:33.634Z,101286.81
2024-05-09T06:38:00.660Z,101285.00
2024-05-09T06:40:36.172Z,101293.00
2024-05-09T06:43:05.448Z,101289.84
2024-05-09T06:45:32.011Z,101293.47
2024-05-09T06:47:58.749Z,101287.94
2024-05-09T06:50:28.544Z,101288.50
2024-05-09T06:53:01.975Z,101288.41
2024-05-09T06:55:28.706Z,101294.16
2024-05-09T06:57:55.316Z,101285.09
2024-05-09T07:00:27.752Z,101289.84
2024-05-09T07:03:05.765Z,101296.53
2024-05-09T07:05:33.404Z,101293.47
2024-05-09T07:08:00.189Z,101299.13
2024-05-09T07:10:32.990Z,101297.41
2024-05-09T07:13:01.983Z,101299.81
2024-05-09T07:15:28.622Z,101296.63
2024-05-09T07:17:55.504Z,101300.00
2024-05-09T07:20:31.716Z,101296.28
2024-05-09T07:23:04.844Z,101298.97
2024-05-09T07:25:31.689Z,101295.88
2024-05-09T07:27:58.334Z,101299.81
2024-05-09T07:30:32.668Z,101301.84
2024-05-09T07:33:01.523Z,101297.47
2024-05-09T07:35:28.934Z,101302.28
2024-05-09T07:37:55.748Z,101302.94
2024-05-09T07:40:32.296Z,101309.81
2024-05-09T07:43:07.243Z,101311.66
2024-05-09T07:52:23.782Z,101315.13
2024-05-09T07:53:38.835Z,101307.53
2024-05-09T07:56:09.387Z,101301.81
2024-05-09T07:58:36.974Z,101309.88
2024-05-09T08:01:03.952Z,101312.97
2024-05-09T08:03:31.123Z,101313.47
2024-05-09T08:05:57.853Z,101313.00
2024-05-09T08:08:24.467Z,101309.19
2024-05-09T08:10:51.483Z,101306.00
2024-05-09T08:13:18.204Z,101305.88
2024-05-09T08:15:45.039Z,101304.28
2024-05-09T08:18:11.981Z,101306.53
2024-05-09T08:20:40.072Z,101306.22
2024-05-09T08:23:07.192Z,101305.13
2024-05-09T08:25:33.875Z,101300.81
2024-05-09T08:28:00.631Z,101300.38
2024-05-09T08:30:33.631Z,101297.78
2024-05-09T08:33:04.836Z,101296.38
2024-05-09T08:35:32.276Z,101298.84
2024-05-09T08:37:59.368Z,101295.50
2024-05-09T08:40:33.580Z,101303.78
2024-05-09T08:43:06.756Z,101298.00
2024-05-09T08:45:35.207Z,101287.97
2024-05-09T08:48:05.782Z,101290.88
2024-05-09T08:50:38.505Z,101289.81
2024-05-09T08:53:06.922Z,101292.13
2024-05-09T08:55:33.608Z,101285.72
2024-05-09T08:58:02.688Z,101289.94
2024-05-09T09:00:36.797Z,101286.81
2024-05-09T09:03:09.353Z,101290.50
2024-05-09T09:05:39.549Z,101297.19
2024-05-09T09:08:08.632Z,101286.25
2024-05-09T09:10:36.110Z,101285.72
2024-05-09T09:13:09.734Z,101283.13
2024-05-09T09:15:47.194Z,101278.38
2024-05-09T09:18:15.275Z,101281.03
2024-05-09T09:20:42.446Z,101281.50
2024-05-09T09:23:09.129Z,101286.84
2024-05-09T09:25:38.925Z,101288.13
2024-05-09T09:28:06.969Z,101282.56
2024-05-09T09:30:37.401Z,101277.91
2024-05-09T09:33:06.330Z,101280.19
2024-05-09T09:35:33.882Z,101281.19
2024-05-09T09:38:02.988Z,101280.06
2024-05-09T09:40:37.585Z,101277.88
2024-05-09T09:43:14.583Z,101280.41
2024-05-09T09:45:43.539Z,101283.97
2024-05-09T09:48:10.821Z,101281.88
2024-05-09T09:50:38.848Z,101278.69
2024-05-09T09:53:07.557Z,101279.41
2024-05-09T09:55:35.526Z,101286.00
2024-05-09T09:58:04.607Z,101286.16
2024-05-09T10:00:34.297Z,101283.88
2024-05-09T10:03:01.824Z,101275.50
2024-05-09T10:05:29.476Z,101276.59
2024-05-09T10:07:57.377Z,101279.34
2024-05-09T10:10:31.956Z,101274.53
2024-05-09T10:13:07.489Z,101277.75
2024-05-09T10:15:48.468Z,101275.97
2024-05-09T10:18:15.539Z,101281.78
2024-05-09T10:20:46.475Z,101273.91
2024-05-09T10:23:30.726Z,101273.88
2024-05-09T10:26:03.017Z,101265.59
2024-05-09T10:28:35.071Z,101279.72
2024-05-09T10:31:13.062Z,101273.22
2024-05-09T10:33:52.338Z,101275.31
2024-05-09T10:36:20.624Z,101263.31
2024-05-09T10:38:49.105Z,101265.78
2024-05-09T10:41:20.135Z,101263.25
2024-05-09T10:43:47.724Z,101255.31
2024-05-09T10:46:15.243Z,101260.66
2024-05-09T10:48:43.213Z,101250.38
2024-05-09T10:51:10.471Z,101255.22
2024-05-09T10:53:44.163Z,101247.69
2024-05-09T10:56:11.413Z,101241.28
2024-05-09T10:58:38.037Z,101245.31
2024-05-09T11:01:07.085Z,101244.03
2024-05-09T11:03:35.494Z,101230.75
2024-05-09T11:06:02.724Z,101228.22
2024-05-09T11:08:31.826Z,101238.34
2024-05-09T11:10:59.574Z,101234.00
2024-05-09T11:13:30.942Z,101223.28
2024-05-09T11:15:58.679Z,101226.63
2024-05-09T11:18:28.950Z,101227.97
2024-05-09T11:20:58.149Z,101233.13
2024-05-09T11:23:26.647Z,101232.91
2024-05-09T11:25:55.513Z,101222.53
2024-05-09T11:28:22.954Z,101227.94
2024-05-09T11:30:50.635Z,101222.97
2024-05-09T11:33:18.996Z,101220.41
2024-05-09T11:35:47.062Z,101220.09
2024-05-09T11:38:14.355Z,101216.19
2024-05-09T11:40:41.063Z,101215.06
2024-05-09T11:43:07.874Z,101216.94
2024-05-09T11:45:34.662Z,101213.66
2024-05-09T11:48:01.516Z,101209.72
2024-05-09T11:50:33.025Z,101207.31
2024-05-09T11:53:02.315Z,101207.09
2024-05-09T11:55:29.227Z,101205.91
2024-05-09T11:57:56.277Z,101206.53
2024-05-09T12:00:33.682Z,101199.59
2024-05-09T12:03:05.358Z,101201.31
2024-05-09T12:05:33.122Z,101196.72
2024-05-09T12:08:00.777Z,101192.38
2024-05-09T12:10:33.176Z,101183.13
2024-05-09T12:13:02.819Z,101185.03
2024-05-09T12:15:30.241Z,101179.06
2024-05-09T12:17:59.110Z,101182.69
2024-05-09T12:20:35.622Z,101183.84
2024-05-09T12:23:05.232Z,101178.69
2024-05-09T12:25:31.881Z,101176.88
2024-05-09T12:27:58.598Z,101179.00
2024-05-09T12:30:33.329Z,101172.63
2024-05-09T12:33:04.982Z,101176.41
2024-05-09T12:35:31.901Z,101169.56
2024-05-09T12:37:58.559Z,101177.56
2024-05-09T12:40:34.285Z,101173.28
2024-05-09T12:43:04.518Z,101167.94
2024-05-09T12:45:31.519Z,101171.22
2024-05-09T12:47:58.476Z,101156.44
2024-05-09T12:50:31.939Z,101159.09
2024-05-09T12:53:00.830Z,101162.03
2024-05-09T12:55:28.504Z,101154.00
2024-05-09T12:57:57.255Z,101166.31
2024-05-09T13:00:31.093Z,101161.75
2024-05-09T13:03:00.961Z,101159.41
2024-05-09T13:05:28.157Z,101155.28
2024-05-09T13:07:56.430Z,101145.84
2024-05-09T13:10:30.688Z,101153.03
2024-05-09T13:13:00.124Z,101149.22
2024-05-09T13:15:27.362Z,101142.66
2024-05-09T13:17:56.378Z,101145.25
2024-05-09T13:20:31.210Z,101146.63
2024-05-09T13:23:01.817Z,101150.25
2024-05-09T13:25:28.462Z,101143.22
2024-05-09T13:27:56.293Z,101131.34
2024-05-09T13:30:29.750Z,101133.63
2024-05-09T13:33:06.319Z,101131.00
2024-05-09T13:35:35.409Z,101124.22
2024-05-09T13:38:03.055Z,101129.00
2024-05-09T13:40:34.184Z,101122.16
2024-05-09T13:43:06.065Z,101121.59
2024-05-09T13:45:33.622Z,101113.22
2024-05-09T13:48:01.965Z,101112.53
2024-05-09T13:50:34.495Z,101110.81
2024-05-09T13:53:05.086Z,101117.03
2024-05-09T13:55:32.694Z,101115.59
2024-05-09T13:57:59.630Z,101106.38
2024-05-09T14:00:38.427Z,101111.50
2024-05-09T14:03:11.655Z,101104.25
2024-05-09T14:05:38.575Z,101102.59
2024-05-09T14:08:06.020Z,101100.03
2024-05-09T14:10:32.979Z,101098.97
2024-05-09T14:13:01.046Z,101098.34
2024-05-09T14:15:27.937Z,101102.16
2024-05-09T14:17:55.407Z,101101.00
2024-05-09T14:20:30.397Z,101102.78
2024-05-09T14:22:59.809Z,101095.06
2024-05-09T14:25:31.944Z,101097.34
2024-05-09T14:27:58.930Z,101097.22
2024-05-09T14:30:34.517Z,101096.09
2024-05-09T14:33:05.206Z,101092.56
2024-05-09T14:35:32.367Z,101095.13
2024-05-09T14:37:59.252Z,101090.63
2024-05-09T14:40:36.460Z,101084.09
2024-05-09T14:43:08.142Z,101094.56
2024-05-09T14:45:35.103Z,101088.44
2024-05-09T14:48:02.789Z,101089.03
2024-05-09T14:50:35.852Z,101098.34
2024-05-09T14:53:06.628Z,101093.59
2024-05-09T14:55:35.917Z,101085.34
2024-05-09T14:58:03.591Z,101087.38
2024-05-09T15:00:35.648Z,101087.94
2024-05-09T15:03:03.973Z,101074.94
2024-05-09T15:05:30.819Z,101088.69
2024-05-09T15:07:58.142Z,101086.06
2024-05-09T15:10:33.721Z,101081.38
2024-05-09T15:13:02.890Z,101079.25
2024-05-09T15:15:29.951Z,101079.53
2024-05-09T15:17:56.946Z,101078.34
2024-05-09T15:20:31.308Z,101078.97
2024-05-09T15:23:02.242Z,101077.38
2024-05-09T15:25:29.094Z,101070.09
2024-05-09T15:27:55.911Z,101065.63
2024-05-09T15:32:52.292Z,101054.44
2024-05-09T15:35:19.066Z,101054.66
2024-05-09T15:37:48.187Z,101048.38
2024-05-09T15:40:18.470Z,101052.72
2024-05-09T15:42:52.399Z,101048.38
2024-05-09T15:45:19.020Z,101049.28
2024-05-09T15:47:45.764Z,101046.44
2024-05-09T15:50:20.086Z,101051.81
2024-05-09T15:52:50.614Z,101042.44
2024-05-09T15:55:17.263Z,101042.28
2024-05-09T15:57:46.103Z,101038.28
2024-05-09T16:00:24.402Z,101030.41
2024-05-09T16:02:55.782Z,101029.81
2024-05-09T16:05:23.092Z,101035.78
2024-05-09T16:07:49.780Z,101040.09
2024-05-09T16:10:22.756Z,101032.28
2024-05-09T16:12:52.479Z,101034.56
2024-05-09T16:15:19.059Z,101037.19
2024-05-09T16:17:46.443Z,101028.22
2024-05-09T16:20:18.140Z,101041.88
2024-05-09T16:22:48.792Z,101035.75
2024-05-09T16:25:15.460Z,101032.00
2024-05-09T16:27:42.408Z,101032.78
2024-05-09T16:30:17.962Z,101029.19
2024-05-09T16:32:48.649Z,101029.94
2024-05-09T16:35:16.001Z,101031.72
2024-05-09T16:37:42.635Z,101040.44
2024-05-09T16:40:21.415Z,101041.47
2024-05-09T16:42:52.458Z,101047.53
2024-05-09T16:45:19.009Z,101036.75
2024-05-09T16:47:45.740Z,101039.25
2024-05-09T16:50:15.804Z,101032.97
2024-05-09T16:52:46.093Z,101039.25
2024-05-09T16:55:12.820Z,101029.66
2024-05-09T16:57:39.894Z,101029.53
2024-05-09T17:00:14.532Z,101024.50
2024-05-09T17:02:44.829Z,101026.06
2024-05-09T17:05:11.525Z,101028.63
2024-05-09T17:07:38.566Z,101029.53
2024-05-09T17:10:10.197Z,101029.53
2024-05-09T17:12:42.792Z,101024.00
2024-05-09T17:15:09.454Z,101019.34
2024-05-09T17:17:36.122Z,101021.66
2024-05-09T17:20:04.694Z,101019.94
2024-05-09T17:22:35.142Z,101026.69
2024-05-09T17:25:02.003Z,101022.22
2024-05-09T17:27:28.687Z,101029.91
2024-05-09T17:29:55.390Z,101031.66
2024-05-09T17:32:22.074Z,101027.03
2024-05-09T17:34:48.887Z,101024.03
2024-05-09T17:37:15.698Z,101030.00
2024-05-09T17:39:42.492Z,101031.53
2024-05-09T17:42:09.271Z,101036.00
2024-05-09T17:44:35.827Z,101034.06
2024-05-09T17:47:02.521Z,101034.69
2024-05-09T17:49:29.229Z,101032.72
2024-05-09T17:51:56.184Z,101034.38
2024-05-09T17:54:22.787Z,101029.13
2024-05-09T17:56:50.556Z,101030.50
2024-05-09T17:59:17.174Z,101032.91
2024-05-09T18:01:43.864Z,101034.31
2024-05-09T18:04:10.815Z,101039.31
2024-05-09T18:06:37.512Z,101036.63
2024-05-09T18:09:04.212Z,101040.84
2024-05-09T18:11:30.874Z,101050.03
2024-05-09T18:13:58.234Z,101052.34
2024-05-09T18:16:25.335Z,101051.38
2024-05-09T18:18:52.438Z,101052.88
2024-05-09T18:21:19.140Z,101048.06
2024-05-09T18:23:45.760Z,101051.41
2024-05-09T18:26:12.416Z,101063.09
2024-05-09T18:28:39.064Z,101067.22
2024-05-09T18:31:05.655Z,101061.22
2024-05-09T18:33:32.481Z,101060.84
2024-05-09T18:35:59.279Z,101057.09
2024-05-09T18:38:26.945Z,101064.69
2024-05-09T18:40:54.393Z,101070.50
2024-05-09T18:43:28.473Z,101067.78
2024-05-09T18:45:58.618Z,101072.97
2024-05-09T18:48:25.365Z,101065.50
2024-05-09T18:50:52.157Z,101073.06
2024-05-09T18:53:18.963Z,101064.16
2024-05-09T18:55:45.623Z,101067.25
2024-05-09T18:58:12.629Z,101070.50
2024-05-09T19:00:41.746Z,101078.09
2024-05-09T19:03:13.769Z,101075.09
2024-05-09T19:05:43.395Z,101083.50
2024-05-09T19:08:11.432Z,101095.66
2024-05-09T19:10:39.042Z,101098.09
2024-05-09T19:13:10.678Z,101099.63
2024-05-09T19:15:40.380Z,101100.47
2024-05-09T19:18:07.822Z,101108.41
2024-05-09T19:20:36.480Z,101110.81
2024-05-09T19:23:04.556Z,101120.03
2024-05-09T19:25:32.035Z,101119.75
2024-05-09T19:27:59.151Z,101120.22
2024-05-09T19:30:36.331Z,101134.91
2024-05-09T19:33:07.280Z,101133.91
2024-05-09T19:35:34.013Z,101132.97
2024-05-09T19:38:00.858Z,101136.94
2024-05-09T19:40:31.878Z,101136.72
2024-05-09T19:43:03.207Z,101142.69
2024-05-09T19:45:30.735Z,101152.13
2024-05-09T19:47:57.524Z,101154.28
2024-05-09T19:50:32.450Z,101155.63
2024-05-09T19:53:07.070Z,101157.25
2024-05-09T19:55:34.165Z,101162.47
2024-05-09T19:58:04.864Z,101165.69
2024-05-09T20:00:39.030Z,101166.25
2024-05-09T20:03:08.426Z,101174.69
2024-05-09T20:05:36.036Z,101178.91
2024-05-09T20:08:03.103Z,101179.03
2024-05-09T20:10:32.826Z,101184.59
2024-05-09T20:13:02.445Z,101187.28
2024-05-09T20:15:29.376Z,101186.28
2024-05-09T20:17:56.178Z,101196.34
2024-05-09T20:20:33.081Z,101193.75
2024-05-09T20:23:05.800Z,101189.97
2024-05-09T20:25:32.413Z,101193.00
2024-05-09T20:27:59.018Z,101192.63
2024-05-09T20:30:31.557Z,101201.94
2024-05-09T20:33:00.496Z,101202.94
2024-05-09T20:35:30.415Z,101203.06
2024-05-09T20:37:57.178Z,101205.06
2024-05-09T20:40:29.203Z,101208.28
2024-05-09T20:43:00.248Z,101209.13
2024-05-09T20:45:27.071Z,101203.69
2024-05-09T20:47:53.947Z,101205.31
2024-05-09T20:50:28.836Z,101205.59
2024-05-09T20:53:03.160Z,101210.13
2024-05-09T20:55:30.131Z,101208.13
2024-05-09T20:57:57.252Z,101206.13
2024-05-09T21:00:30.355Z,101208.75
2024-05-09T21:03:05.298Z,101209.34
2024-05-09T21:05:32.238Z,101213.78
2024-05-09T21:07:58.911Z,101205.56
2024-05-09T21:10:27.178Z,101208.72
2024-05-09T21:12:56.418Z,101211.56
2024-05-09T21:15:23.181Z,101208.16
2024-05-09T21:17:49.798Z,101212.22
2024-05-09T21:20:20.613Z,101207.72
2024-05-09T21:22:50.871Z,101205.03
2024-05-09T21:25:17.509Z,101202.16
2024-05-09T21:27:44.180Z,101197.81
2024-05-09T21:30:18.416Z,101206.44
2024-05-09T21:32:50.270Z,101202.44
2024-05-09T21:35:17.680Z,101193.09
2024-05-09T21:37:44.387Z,101202.72
2024-05-09T21:40:14.050Z,101201.31
2024-05-09T21:42:48.643Z,101206.25
2024-05-09T21:45:15.294Z,101207.25
2024-05-09T21:47:42.309Z,101208.03
2024-05-09T21:50:12.523Z,101207.97
2024-05-09T21:52:41.936Z,101216.69
2024-05-09T21:55:08.960Z,101217.78
2024-05-09T21:57:35.627Z,101217.16
2024-05-09T22:00:03.265Z,101218.09
2024-05-09T22:02:30.997Z,101216.38
2024-05-09T22:04:57.818Z,101223.78
2024-05-09T22:07:24.598Z,101233.63
2024-05-09T22:09:51.200Z,101228.81
2024-05-09T22:12:17.744Z,101231.63
2024-05-09T22:14:44.309Z,101236.25
2024-05-09T22:17:10.949Z,101234.25
2024-05-09T22:19:37.600Z,101237.44
2024-05-09T22:22:04.507Z,101247.28
2024-05-09T22:24:31.099Z,101241.06
2024-05-09T22:26:57.702Z,101243.16
2024-05-09T22:29:24.284Z,101246.88
2024-05-09T22:31:50.826Z,101248.88
2024-05-09T22:34:17.585Z,101247.88
2024-05-09T22:36:44.296Z,101247.47
2024-05-09T22:39:10.917Z,101255.28
2024-05-09T22:41:39.369Z,101255.16
2024-05-09T22:44:06.122Z,101257.00
2024-05-09T22:46:32.783Z,101255.09
2024-05-09T22:48:59.574Z,101264.91
2024-05-09T22:51:26.238Z,101252.69
2024-05-09T22:53:52.813Z,101256.31
2024-05-09T22:56:29.186Z,101260.00
2024-05-09T22:58:56.394Z,101260.91
2024-05-09T23:01:26.335Z,101271.72
2024-05-09T23:03:53.886Z,101268.13
2024-05-09T23:06:20.541Z,101268.59
2024-05-09T23:08:47.135Z,101275.53
2024-05-09T23:11:13.916Z,101269.81
2024-05-09T23:13:40.553Z,101271.81
2024-05-09T23:16:07.411Z,101268.44
2024-05-09T23:18:34.071Z,101275.13
2024-05-09T23:21:01.174Z,101280.03
2024-05-09T23:23:27.768Z,101281.22
2024-05-09T23:25:54.310Z,101278.66
2024-05-09T23:28:20.869Z,101267.84
2024-05-09T23:30:47.648Z,101275.69
2024-05-09T23:33:14.724Z,101274.84
2024-05-09T23:35:44.038Z,101278.47
2024-05-09T23:38:11.034Z,101274.38
2024-05-09T23:40:40.347Z,101272.97
2024-05-09T23:43:10.010Z,101270.50
2024-05-09T23:45:37.345Z,101276.28
2024-05-09T23:48:04.758Z,101269.84
2024-05-09T23:50:36.052Z,101274.16
2024-05-09T23:53:05.838Z,101270.97
2024-05-09T23:55:33.039Z,101276.66
2024-05-09T23:57:59.842Z,101269.88
